Time;durP1;ratioP1;P1;durP2;ratioP2;P2;SDS_P1;SDS_P2;PMS_P1;PMS_P2;Temp;Humidity;BMP_temperature;BMP_pressure;BME280_temperature;BME280_humidity;BME280_pressure;Samples;Min_cycle;Max_cycle;Signal;HPM_P1;HPM_P2
2021/07/05 00:00:18;;;;;;;1.80;1.10;;;16.70;93.10;;;;;;5035886;28;20467;-69
2021/07/05 00:02:46;;;;;;;2.93;0.97;;;16.80;93.10;;;;;;5052732;28;20983;-68
2021/07/05 00:05:14;;;;;;;1.80;0.87;;;16.80;93.20;;;;;;5046038;28;20446;-69
2021/07/05 00:07:42;;;;;;;2.57;0.93;;;16.80;93.20;;;;;;5032932;28;20485;-69
2021/07/05 00:10:10;;;;;;;1.57;0.77;;;16.80;93.30;;;;;;5037899;28;20487;-68
2021/07/05 00:12:44;;;;;;;1.90;1.00;;;16.80;92.90;;;;;;5052874;28;20469;-69
2021/07/05 00:15:13;;;;;;;2.80;0.90;;;16.80;93.40;;;;;;5046980;28;21017;-69
2021/07/05 00:17:40;;;;;;;2.90;1.20;;;16.80;93.70;;;;;;5032846;28;20442;-69
2021/07/05 00:20:09;;;;;;;1.80;0.87;;;16.80;93.50;;;;;;5047896;28;20506;-69
2021/07/05 00:22:36;;;;;;;1.50;0.77;;;16.80;93.60;;;;;;5051987;28;20599;-69
2021/07/05 00:25:05;;;;;;;4.50;1.20;;;16.80;93.90;;;;;;5037787;28;20573;-69
2021/07/05 00:27:32;;;;;;;2.03;1.07;;;16.90;94.00;;;;;;5032562;28;20445;-69
2021/07/05 00:30:01;;;;;;;2.73;0.80;;;16.90;94.20;;;;;;5033398;28;20441;-69
2021/07/05 00:32:28;;;;;;;1.87;1.07;;;16.90;93.90;;;;;;5032665;28;20449;-69
2021/07/05 00:34:55;;;;;;;1.60;0.80;;;16.90;94.00;;;;;;5033539;28;20499;-69
2021/07/05 00:37:28;;;;;;;3.10;1.20;;;16.90;93.90;;;;;;5032803;28;20441;-69
2021/07/05 00:39:55;;;;;;;2.53;1.33;;;16.90;93.80;;;;;;5043689;28;20506;-69
2021/07/05 00:42:22;;;;;;;1.80;0.90;;;16.80;93.70;;;;;;5052367;28;20527;-68
2021/07/05 00:44:49;;;;;;;1.70;0.87;;;16.80;93.70;;;;;;5041515;28;20450;-69
2021/07/05 00:47:17;;;;;;;2.10;1.10;;;16.80;93.90;;;;;;5032513;28;20438;-69
2021/07/05 00:49:44;;;;;;;1.93;0.97;;;16.80;94.20;;;;;;5040945;28;20989;-69
2021/07/05 00:52:12;;;;;;;1.70;1.00;;;16.90;94.40;;;;;;5052472;28;20444;-70
2021/07/05 00:54:39;;;;;;;1.63;0.80;;;16.90;94.50;;;;;;5044013;28;20449;-70
2021/07/05 00:57:19;;;;;;;2.70;1.03;;;16.80;93.90;;;;;;5032295;28;20437;-69
2021/07/05 00:59:48;;;;;;;1.60;0.80;;;16.80;94.20;;;;;;5040116;28;20939;-69
2021/07/05 01:02:17;;;;;;;1.77;1.00;;;16.90;94.40;;;;;;5052150;28;20500;-69
2021/07/05 01:04:45;;;;;;;1.47;0.80;;;16.80;93.70;;;;;;5044608;28;20511;-69
2021/07/05 01:07:12;;;;;;;1.83;1.20;;;16.80;93.60;;;;;;5032142;28;20496;-70
2021/07/05 01:09:40;;;;;;;1.60;1.00;;;16.70;93.50;;;;;;5037984;28;20502;-70
2021/07/05 01:12:07;;;;;;;2.30;1.00;;;16.80;93.70;;;;;;5052231;28;20517;-69
2021/07/05 01:14:36;;;;;;;1.93;1.00;;;16.80;93.60;;;;;;5046652;28;20437;-69
2021/07/05 01:17:04;;;;;;;2.43;1.00;;;16.70;93.30;;;;;;5033087;28;20512;-69
2021/07/05 01:19:36;;;;;;;1.67;0.87;;;16.70;93.10;;;;;;5035965;28;20823;-69
2021/07/05 01:22:08;;;;;;;2.07;1.00;;;16.70;93.20;;;;;;5052133;28;20481;-69
2021/07/05 01:24:35;;;;;;;2.03;1.00;;;16.70;93.20;;;;;;5047656;28;20433;-69
2021/07/05 01:27:03;;;;;;;3.10;1.00;;;16.70;93.30;;;;;;5032040;28;20439;-68
2021/07/05 01:29:30;;;;;;;2.10;1.13;;;16.80;93.40;;;;;;5038166;28;20445;-69
2021/07/05 01:31:57;;;;;;;2.27;1.07;;;16.70;93.20;;;;;;5051913;28;20447;-69
2021/07/05 01:34:24;;;;;;;1.60;1.00;;;16.70;92.50;;;;;;5049784;28;20446;-69
2021/07/05 01:36:51;;;;;;;3.07;1.03;;;16.70;92.60;;;;;;5035681;28;20437;-69
2021/07/05 01:39:21;;;;;;;2.33;1.00;;;16.70;92.40;;;;;;5039548;28;20437;-69
2021/07/05 01:41:50;;;;;;;1.57;0.83;;;16.70;92.60;;;;;;5055523;28;20504;-69
2021/07/05 01:44:22;;;;;;;5.50;1.47;;;16.60;92.70;;;;;;5051540;28;20444;-69
2021/07/05 01:46:49;;;;;;;3.83;1.10;;;16.60;93.10;;;;;;5035641;28;20437;-69
2021/07/05 01:49:16;;;;;;;2.03;1.23;;;16.50;93.70;;;;;;5047335;28;20524;-69
2021/07/05 01:51:43;;;;;;;4.60;1.00;;;16.50;94.10;;;;;;5055481;28;20436;-69
2021/07/05 01:54:13;;;;;;;2.00;1.30;;;16.50;94.20;;;;;;5043918;28;20468;-69
2021/07/05 01:56:45;;;;;;;1.90;1.10;;;16.40;94.10;;;;;;5035560;28;20438;-69
2021/07/05 01:59:12;;;;;;;1.93;0.90;;;16.30;94.30;;;;;;5045632;28;20429;-73
2021/07/05 02:01:40;;;;;;;3.20;1.00;;;16.30;94.50;;;;;;5055224;28;20452;-69
2021/07/05 02:04:08;;;;;;;2.90;1.07;;;16.30;94.90;;;;;;5045439;28;20430;-69
2021/07/05 02:06:37;;;;;;;2.10;1.00;;;16.30;95.00;;;;;;5035174;28;20434;-69
2021/07/05 02:09:07;;;;;;;4.20;1.23;;;16.30;95.00;;;;;;5043110;28;20428;-69
2021/07/05 02:11:36;;;;;;;2.20;1.10;;;16.30;95.20;;;;;;5055286;28;20429;-70
2021/07/05 02:14:06;;;;;;;1.77;0.80;;;16.20;95.30;;;;;;5046939;28;20441;-69
2021/07/05 02:16:35;;;;;;;2.27;1.03;;;16.20;95.50;;;;;;5034760;28;21037;-70
2021/07/05 02:19:02;;;;;;;4.07;1.37;;;16.20;95.50;;;;;;5041675;28;20467;-68
2021/07/05 02:21:29;;;;;;;1.83;0.90;;;16.10;95.40;;;;;;5055086;28;20448;-69
2021/07/05 02:23:56;;;;;;;2.40;1.17;;;16.10;95.40;;;;;;5048831;28;20477;-69
2021/07/05 02:26:23;;;;;;;2.73;1.47;;;16.10;95.50;;;;;;5034501;28;20442;-69
2021/07/05 02:28:50;;;;;;;1.60;0.93;;;16.10;95.70;;;;;;5035564;28;20444;-69
2021/07/05 02:31:18;;;;;;;3.37;1.07;;;16.10;96.00;;;;;;5054037;28;20993;-69
2021/07/05 02:33:45;;;;;;;3.00;1.00;;;16.10;96.00;;;;;;5051235;28;20467;-69
2021/07/05 02:36:12;;;;;;;2.20;1.10;;;16.10;95.80;;;;;;5034642;28;20445;-69
2021/07/05 02:38:39;;;;;;;2.17;1.00;;;16.10;95.60;;;;;;5034444;28;20473;-69
2021/07/05 02:41:06;;;;;;;2.10;1.00;;;16.00;95.60;;;;;;5034773;28;20445;-69
2021/07/05 02:43:33;;;;;;;2.67;1.63;;;16.00;95.10;;;;;;5034019;28;20485;-69
2021/07/05 02:46:02;;;;;;;4.97;1.10;;;16.00;95.30;;;;;;5054045;28;20433;-69
2021/07/05 02:48:33;;;;;;;2.00;1.17;;;15.90;95.10;;;;;;5043371;28;20434;-69
2021/07/05 02:51:02;;;;;;;1.90;1.00;;;15.90;95.30;;;;;;5048595;28;20449;-69
2021/07/05 02:53:30;;;;;;;3.17;1.63;;;15.90;95.30;;;;;;5043712;28;20445;-69
2021/07/05 02:55:58;;;;;;;2.43;1.30;;;15.80;95.50;;;;;;5034393;28;20437;-70
2021/07/05 02:58:25;;;;;;;3.70;1.37;;;15.70;95.50;;;;;;5042872;28;20461;-69
2021/07/05 03:00:53;;;;;;;2.40;1.70;;;15.70;95.60;;;;;;5054031;28;20962;-69
2021/07/05 03:03:21;;;;;;;2.30;1.27;;;15.80;95.80;;;;;;5045748;28;20469;-69
2021/07/05 03:05:50;;;;;;;4.73;1.50;;;15.80;95.40;;;;;;5033970;28;20445;-69
2021/07/05 03:08:17;;;;;;;3.20;1.47;;;15.80;95.20;;;;;;5040529;28;20442;-69
2021/07/05 03:10:44;;;;;;;2.57;1.13;;;15.80;95.30;;;;;;5054009;28;20445;-69
2021/07/05 03:13:13;;;;;;;2.50;1.33;;;15.90;95.50;;;;;;5048023;28;20788;-69
2021/07/05 03:15:41;;;;;;;2.80;1.17;;;15.90;95.50;;;;;;5039175;28;20468;-68
2021/07/05 03:18:08;;;;;;;1.63;0.93;;;15.90;95.20;;;;;;5048951;28;20996;-69
2021/07/05 03:20:38;;;;;;;2.40;1.17;;;15.90;95.20;;;;;;5033904;28;20532;-69
2021/07/05 03:23:09;;;;;;;2.20;1.20;;;16.00;95.50;;;;;;5036955;28;20480;-69
2021/07/05 03:25:38;;;;;;;3.37;1.40;;;16.00;95.50;;;;;;5053657;28;20433;-69
2021/07/05 03:28:07;;;;;;;3.10;2.23;;;16.00;95.00;;;;;;5050412;28;20442;-69
2021/07/05 03:30:37;;;;;;;4.97;2.70;;;16.00;94.80;;;;;;5033730;28;20528;-69
2021/07/05 03:33:05;;;;;;;2.97;2.03;;;16.00;94.80;;;;;;5035604;28;20944;-70
2021/07/05 03:35:32;;;;;;;4.57;2.70;;;15.90;94.80;;;;;;5053563;28;20441;-69
2021/07/05 03:37:59;;;;;;;4.50;2.07;;;15.90;94.80;;;;;;5052013;28;20931;-69
2021/07/05 03:40:29;;;;;;;2.33;1.30;;;15.90;95.20;;;;;;5033478;28;20441;-69
2021/07/05 03:42:57;;;;;;;2.80;1.00;;;15.80;94.70;;;;;;5045384;28;20507;-68
2021/07/05 03:45:27;;;;;;;2.90;1.50;;;15.80;94.60;;;;;;5047245;28;20438;-69
2021/07/05 03:47:56;;;;;;;3.60;1.90;;;15.80;94.90;;;;;;5033292;28;20799;-69
2021/07/05 03:50:23;;;;;;;2.30;1.40;;;15.80;95.10;;;;;;5037349;28;20467;-69
2021/07/05 03:52:51;;;;;;;1.80;1.10;;;15.80;95.30;;;;;;5053164;28;20490;-69
2021/07/05 03:55:21;;;;;;;3.17;1.20;;;15.80;95.30;;;;;;5048792;28;20511;-69
2021/07/05 03:57:51;;;;;;;1.80;1.13;;;15.80;95.30;;;;;;5033144;28;20504;-69
2021/07/05 04:00:21;;;;;;;6.77;1.37;;;15.90;95.50;;;;;;5035871;28;20465;-69
2021/07/05 04:02:49;;;;;;;1.80;1.20;;;15.90;95.20;;;;;;5053175;28;20473;-69
2021/07/05 04:05:16;;;;;;;2.93;1.53;;;16.00;95.10;;;;;;5051483;28;20617;-69
2021/07/05 04:07:44;;;;;;;7.57;1.57;;;16.00;95.60;;;;;;5033303;28;20778;-69
2021/07/05 04:10:13;;;;;;;1.80;1.17;;;16.10;95.90;;;;;;5033453;28;20537;-69
2021/07/05 04:12:40;;;;;;;4.33;1.27;;;16.00;95.00;;;;;;5053171;28;20440;-69
2021/07/05 04:15:09;;;;;;;5.83;1.20;;;16.10;94.90;;;;;;5053002;28;20590;-69
2021/07/05 04:17:36;;;;;;;2.07;1.13;;;16.20;94.70;;;;;;5035210;28;20488;-71
2021/07/05 04:20:07;;;;;;;2.30;1.00;;;16.20;94.30;;;;;;5031937;28;20438;-69
2021/07/05 04:22:35;;;;;;;4.77;1.43;;;16.20;94.50;;;;;;5034818;28;20524;-69
2021/07/05 04:25:01;;;;;;;11.30;1.33;;;16.20;93.90;;;;;;5041231;28;20860;-69
2021/07/05 04:27:28;;;;;;;4.80;1.30;;;16.10;93.80;;;;;;5032565;28;20438;-69
2021/07/05 04:29:57;;;;;;;4.90;1.10;;;16.20;94.00;;;;;;5032287;28;20867;-70
2021/07/05 04:32:25;;;;;;;3.13;1.30;;;16.20;93.20;;;;;;5044147;28;20447;-70
2021/07/05 04:34:52;;;;;;;2.37;0.90;;;16.30;93.60;;;;;;5046428;28;20565;-69
2021/07/05 04:37:19;;;;;;;2.47;1.30;;;16.30;93.50;;;;;;5049048;28;20445;-69
2021/07/05 04:39:47;;;;;;;2.40;0.80;;;16.40;93.50;;;;;;5036404;28;20442;-70
2021/07/05 04:42:14;;;;;;;2.57;1.30;;;16.50;93.00;;;;;;5032718;28;20453;-69
2021/07/05 04:44:43;;;;;;;2.87;1.00;;;16.50;93.20;;;;;;5032298;28;20562;-69
2021/07/05 04:47:15;;;;;;;3.30;0.97;;;16.50;93.10;;;;;;5033543;28;20838;-69
2021/07/05 04:49:43;;;;;;;1.87;1.27;;;16.50;93.10;;;;;;5033692;28;20441;-69
2021/07/05 04:52:10;;;;;;;2.07;1.00;;;16.50;93.10;;;;;;5041294;28;20531;-69
2021/07/05 04:54:37;;;;;;;1.80;0.90;;;16.50;93.30;;;;;;5042028;28;20491;-69
2021/07/05 04:57:04;;;;;;;3.10;1.47;;;16.50;93.30;;;;;;5037089;28;20437;-69
2021/07/05 04:59:32;;;;;;;2.47;1.30;;;16.50;93.20;;;;;;5052278;28;20520;-69
2021/07/05 05:01:59;;;;;;;4.80;1.30;;;16.50;93.70;;;;;;5048747;28;20487;-69
2021/07/05 05:04:26;;;;;;;2.00;1.20;;;16.50;94.00;;;;;;5032632;28;20509;-69
2021/07/05 05:06:54;;;;;;;3.27;1.30;;;16.60;93.60;;;;;;5040899;28;20469;-69
2021/07/05 05:09:23;;;;;;;1.77;1.10;;;16.50;93.50;;;;;;5038428;28;20511;-69
2021/07/05 05:11:52;;;;;;;3.27;0.90;;;16.60;93.90;;;;;;5045191;28;20444;-69
2021/07/05 05:14:19;;;;;;;4.33;0.90;;;16.60;94.20;;;;;;5036221;28;20444;-70
2021/07/05 05:16:51;;;;;;;1.50;0.60;;;16.60;94.60;;;;;;5036187;28;20465;-69
2021/07/05 05:19:18;;;;;;;1.80;0.90;;;16.60;94.70;;;;;;5036541;28;20457;-69
2021/07/05 05:21:45;;;;;;;2.23;1.10;;;16.70;94.30;;;;;;5040628;28;20526;-69
2021/07/05 05:24:13;;;;;;;4.07;1.10;;;16.70;93.20;;;;;;5051891;28;20534;-69
2021/07/05 05:26:41;;;;;;;1.50;0.73;;;16.70;93.30;;;;;;5053709;28;20865;-69
2021/07/05 05:29:08;;;;;;;1.70;0.90;;;16.60;93.90;;;;;;5051057;28;20440;-69
2021/07/05 05:31:36;;;;;;;1.90;1.07;;;16.70;93.90;;;;;;5035095;28;20516;-69
2021/07/05 05:34:03;;;;;;;3.53;1.00;;;16.70;94.60;;;;;;5045795;28;20938;-69
2021/07/05 05:36:30;;;;;;;2.03;0.90;;;16.90;94.40;;;;;;5043670;28;20865;-69
2021/07/05 05:39:04;;;;;;;3.70;1.10;;;17.00;94.60;;;;;;5036169;28;20461;-69
2021/07/05 05:41:33;;;;;;;1.80;0.90;;;17.20;94.30;;;;;;5049354;28;20445;-68
2021/07/05 05:44:01;;;;;;;1.57;0.70;;;17.30;93.60;;;;;;5051283;28;20498;-69
2021/07/05 05:46:32;;;;;;;1.60;0.60;;;17.40;92.80;;;;;;5038297;28;20532;-70
2021/07/05 05:48:59;;;;;;;2.13;0.90;;;17.50;92.30;;;;;;5041345;28;20441;-69
2021/07/05 05:51:31;;;;;;;1.70;0.90;;;17.60;92.20;;;;;;5034918;28;20524;-69
2021/07/05 05:53:58;;;;;;;2.10;0.87;;;17.70;91.40;;;;;;5044815;28;20464;-70
2021/07/05 05:56:25;;;;;;;1.73;0.83;;;17.70;91.60;;;;;;5052835;28;20433;-68
2021/07/05 05:58:55;;;;;;;1.57;0.80;;;17.90;91.40;;;;;;5051839;28;20445;-70
2021/07/05 06:01:23;;;;;;;1.53;0.70;;;17.90;91.50;;;;;;5035243;28;20433;-69
2021/07/05 06:03:50;;;;;;;3.50;0.93;;;17.90;90.60;;;;;;5034367;28;20568;-70
2021/07/05 06:06:16;;;;;;;1.60;0.70;;;17.90;90.60;;;;;;5044721;28;20539;-69
2021/07/05 06:08:43;;;;;;;1.90;0.90;;;17.90;91.10;;;;;;5053081;28;20460;-69
2021/07/05 06:11:10;;;;;;;2.20;1.07;;;18.00;90.80;;;;;;5050386;28;20439;-69
2021/07/05 06:13:39;;;;;;;2.27;0.87;;;18.00;90.90;;;;;;5032243;28;20524;-70
2021/07/05 06:16:08;;;;;;;1.70;0.90;;;18.20;90.00;;;;;;5051080;28;20544;-69
2021/07/05 06:18:35;;;;;;;4.60;3.30;;;18.30;90.20;;;;;;5042172;28;20524;-69
2021/07/05 06:21:02;;;;;;;3.10;0.83;;;18.40;90.10;;;;;;5034805;28;20544;-70
2021/07/05 06:23:29;;;;;;;2.47;1.10;;;18.60;89.10;;;;;;5035039;28;20473;-69
2021/07/05 06:25:58;;;;;;;1.70;0.90;;;18.70;90.60;;;;;;5034921;28;21027;-69
2021/07/05 06:28:27;;;;;;;2.03;0.87;;;18.70;90.30;;;;;;5037064;28;20488;-69
2021/07/05 06:30:55;;;;;;;1.70;0.73;;;18.80;90.30;;;;;;5046633;28;20515;-71
2021/07/05 06:33:27;;;;;;;1.50;0.60;;;18.80;90.70;;;;;;5028864;28;20445;-70
2021/07/05 06:35:54;;;;;;;1.60;1.10;;;18.90;90.90;;;;;;5052050;28;20468;-69
2021/07/05 06:38:22;;;;;;;2.13;0.90;;;18.90;89.80;;;;;;5043132;28;20860;-69
2021/07/05 06:40:52;;;;;;;2.90;0.97;;;18.90;90.00;;;;;;5051403;28;20520;-69
2021/07/05 06:43:21;;;;;;;1.97;1.07;;;19.00;89.20;;;;;;5039582;28;20937;-69
2021/07/05 06:45:48;;;;;;;3.67;0.83;;;19.10;89.50;;;;;;5034461;28;20533;-70
2021/07/05 06:48:15;;;;;;;2.80;1.07;;;19.20;90.00;;;;;;5034625;28;20517;-70
2021/07/05 06:50:44;;;;;;;2.97;1.27;;;19.30;88.60;;;;;;5034613;28;20496;-69
2021/07/05 06:53:11;;;;;;;3.00;1.00;;;19.40;88.40;;;;;;5034515;28;20971;-69
2021/07/05 06:55:38;;;;;;;2.67;0.83;;;19.70;87.70;;;;;;5034306;28;20444;-70
2021/07/05 06:58:05;;;;;;;1.60;0.83;;;20.00;87.20;;;;;;5038704;28;20537;-70
2021/07/05 07:00:33;;;;;;;2.73;0.90;;;20.30;88.50;;;;;;5044140;28;20552;-70
2021/07/05 07:03:02;;;;;;;2.30;1.03;;;20.60;88.40;;;;;;5042629;28;20444;-73
2021/07/05 07:05:30;;;;;;;1.63;0.77;;;20.90;85.80;;;;;;5048909;28;20556;-70
2021/07/05 07:07:59;;;;;;;1.80;0.80;;;21.10;82.10;;;;;;5047899;28;20464;-69
2021/07/05 07:10:27;;;;;;;1.93;0.90;;;21.30;79.60;;;;;;5051643;28;20441;-69
2021/07/05 07:12:56;;;;;;;1.87;0.87;;;21.40;80.50;;;;;;5049304;28;20441;-71
2021/07/05 07:15:28;;;;;;;1.90;0.87;;;21.60;78.70;;;;;;5032120;28;20465;-70
2021/07/05 07:17:59;;;;;;;1.70;0.80;;;21.80;77.50;;;;;;5034250;28;20936;-69
2021/07/05 07:20:27;;;;;;;1.87;0.80;;;22.00;75.50;;;;;;5050844;28;20484;-69
2021/07/05 07:22:54;;;;;;;1.53;0.70;;;22.20;73.00;;;;;;5050482;28;20828;-69
2021/07/05 07:25:23;;;;;;;4.03;1.20;;;22.30;70.70;;;;;;5050401;28;20657;-69
2021/07/05 07:27:51;;;;;;;1.77;0.97;;;22.60;71.00;;;;;;5045146;28;20429;-70
2021/07/05 07:30:19;;;;;;;1.50;0.60;;;22.70;69.00;;;;;;5047353;28;20445;-69
2021/07/05 07:32:48;;;;;;;1.83;0.80;;;23.00;69.50;;;;;;5048545;28;20541;-74
2021/07/05 07:35:20;;;;;;;2.80;0.80;;;23.10;66.30;;;;;;5033713;28;20491;-69
2021/07/05 07:37:49;;;;;;;1.40;0.50;;;23.30;64.90;;;;;;5034045;28;20943;-69
2021/07/05 07:40:21;;;;;;;1.60;0.60;;;23.40;59.20;;;;;;5033617;28;20927;-69
2021/07/05 07:42:50;;;;;;;2.50;0.80;;;23.50;58.50;;;;;;5033488;28;20496;-71
2021/07/05 07:45:20;;;;;;;1.57;0.60;;;23.60;59.80;;;;;;5040594;28;20481;-69
2021/07/05 07:47:48;;;;;;;1.80;0.80;;;23.80;62.80;;;;;;5033447;28;20435;-69
2021/07/05 07:50:18;;;;;;;1.50;0.60;;;24.00;60.10;;;;;;5033070;28;20442;-69
2021/07/05 07:52:45;;;;;;;1.83;0.90;;;24.20;59.20;;;;;;5045441;28;20455;-69
2021/07/05 07:55:15;;;;;;;2.20;1.30;;;24.30;57.30;;;;;;5047294;28;20445;-71
2021/07/05 07:57:42;;;;;;;1.80;0.80;;;24.50;57.40;;;;;;5033701;28;20512;-69
2021/07/05 08:00:14;;;;;;;2.57;0.90;;;24.60;57.60;;;;;;5033403;28;20438;-69
2021/07/05 08:02:42;;;;;;;1.50;0.67;;;24.70;57.00;;;;;;5035265;28;20444;-69
2021/07/05 08:05:10;;;;;;;2.83;1.00;;;24.90;57.70;;;;;;5035502;28;20566;-70
2021/07/05 08:07:40;;;;;;;1.53;0.50;;;25.10;58.20;;;;;;5032172;28;20489;-70
2021/07/05 08:10:13;;;;;;;2.30;1.20;;;25.20;55.60;;;;;;5032814;28;20812;-69
2021/07/05 08:12:41;;;;;;;1.77;0.90;;;25.20;56.60;;;;;;5032114;28;20447;-69
2021/07/05 08:15:08;;;;;;;1.60;0.70;;;25.20;52.40;;;;;;5045787;28;20468;-70
2021/07/05 08:17:38;;;;;;;2.27;1.00;;;25.10;54.10;;;;;;5032260;28;20941;-71
2021/07/05 08:20:06;;;;;;;1.80;0.90;;;25.20;54.90;;;;;;5044782;28;20454;-70
2021/07/05 08:22:36;;;;;;;1.97;0.90;;;25.40;56.80;;;;;;5039207;28;20930;-69
2021/07/05 08:25:05;;;;;;;1.70;0.70;;;25.60;56.10;;;;;;5034778;28;21070;-69
2021/07/05 08:27:33;;;;;;;2.33;0.70;;;26.00;55.10;;;;;;5038970;28;20442;-69
2021/07/05 08:30:00;;;;;;;2.00;0.93;;;26.20;53.20;;;;;;5032177;28;20463;-69
2021/07/05 08:32:28;;;;;;;6.27;0.80;;;26.40;53.60;;;;;;5033189;28;20945;-69
2021/07/05 08:34:56;;;;;;;1.90;0.90;;;26.60;55.00;;;;;;5036656;28;20441;-69
2021/07/05 08:37:23;;;;;;;2.90;0.80;;;26.70;50.30;;;;;;5049897;28;20452;-69
2021/07/05 08:39:50;;;;;;;1.60;0.70;;;26.70;50.10;;;;;;5049212;28;20495;-69
2021/07/05 08:42:19;;;;;;;2.40;0.80;;;26.80;50.70;;;;;;5049529;28;20502;-69
2021/07/05 08:44:46;;;;;;;3.00;0.87;;;27.00;50.70;;;;;;5044580;28;20568;-69
2021/07/05 08:47:14;;;;;;;2.00;0.80;;;27.30;52.00;;;;;;5046875;28;20446;-73
2021/07/05 08:49:41;;;;;;;1.93;0.80;;;27.50;48.10;;;;;;5032259;28;20492;-69
2021/07/05 08:52:09;;;;;;;1.70;0.80;;;27.60;50.30;;;;;;5032571;28;20441;-72
2021/07/05 08:54:36;;;;;;;1.90;0.87;;;27.70;51.50;;;;;;5049835;28;20535;-69
2021/07/05 08:57:04;;;;;;;1.90;1.00;;;27.70;50.30;;;;;;5048043;28;20437;-69
2021/07/05 08:59:37;;;;;;;2.70;0.60;;;27.70;48.50;;;;;;5050045;28;20448;-69
2021/07/05 09:02:04;;;;;;;2.10;0.70;;;27.80;49.10;;;;;;5047498;28;20432;-69
2021/07/05 09:04:33;;;;;;;4.57;1.00;;;27.90;48.10;;;;;;5049946;28;20580;-69
2021/07/05 09:07:07;;;;;;;1.70;0.60;;;27.90;48.80;;;;;;5049113;28;20440;-68
2021/07/05 09:09:36;;;;;;;1.80;0.90;;;27.80;48.30;;;;;;5045307;28;20515;-69
2021/07/05 09:12:05;;;;;;;1.70;1.00;;;27.60;45.10;;;;;;5035128;28;20445;-69
2021/07/05 09:14:37;;;;;;;3.40;0.60;;;27.30;45.30;;;;;;5041512;28;20445;-68
2021/07/05 09:17:09;;;;;;;2.10;1.07;;;27.20;45.90;;;;;;5036496;28;20440;-69
2021/07/05 09:19:38;;;;;;;2.00;0.73;;;27.20;45.80;;;;;;5045833;28;20434;-69
2021/07/05 09:22:10;;;;;;;1.57;0.70;;;27.20;46.10;;;;;;5032124;28;20477;-71
2021/07/05 09:24:42;;;;;;;1.50;0.60;;;27.30;47.10;;;;;;5032124;28;20489;-69
2021/07/05 09:27:15;;;;;;;2.50;0.70;;;27.50;45.40;;;;;;5032101;28;20442;-69
2021/07/05 09:29:43;;;;;;;1.70;0.80;;;27.80;45.30;;;;;;5032050;28;20536;-69
2021/07/05 09:32:12;;;;;;;2.30;0.90;;;28.10;45.40;;;;;;5032423;28;20438;-69
2021/07/05 09:34:44;;;;;;;1.53;0.67;;;28.30;44.20;;;;;;5036333;28;20962;-69
2021/07/05 09:37:19;;;;;;;1.50;0.60;;;28.50;44.80;;;;;;5035114;28;20438;-69
2021/07/05 09:40:12;;;;;;;1.70;0.90;;;28.70;43.70;;;;;;5031473;28;20433;-69
2021/07/05 09:42:42;;;;;;;1.60;0.70;;;28.70;43.90;;;;;;5047562;28;20909;-74
2021/07/05 09:45:11;;;;;;;1.70;0.80;;;28.70;45.30;;;;;;5047837;28;20483;-70
2021/07/05 09:47:38;;;;;;;5.50;0.73;;;28.80;42.60;;;;;;5043648;28;20524;-75
2021/07/05 09:50:11;;;;;;;1.90;0.90;;;28.80;43.70;;;;;;5049971;28;20446;-69
2021/07/05 09:52:38;;;;;;;1.70;0.80;;;28.80;44.70;;;;;;5049057;28;20928;-70
2021/07/05 09:55:12;;;;;;;1.70;0.90;;;28.70;43.30;;;;;;5052378;28;20520;-69
2021/07/05 09:57:52;;;;;;;1.80;1.03;;;28.40;44.30;;;;;;5052110;28;20437;-70
2021/07/05 10:00:21;;;;;;;1.70;0.70;;;28.10;45.00;;;;;;5049720;28;20476;-69
2021/07/05 10:02:59;;;;;;;1.93;0.70;;;28.00;44.20;;;;;;5045126;28;20439;-69
2021/07/05 10:05:31;;;;;;;2.60;0.70;;;27.90;44.20;;;;;;5035748;28;20893;-69
2021/07/05 10:08:00;;;;;;;1.93;0.80;;;27.80;44.20;;;;;;5040956;28;20436;-69
2021/07/05 10:10:29;;;;;;;1.50;0.70;;;27.70;44.80;;;;;;5053016;28;20473;-69
2021/07/05 10:12:57;;;;;;;2.13;0.80;;;27.70;45.50;;;;;;5044363;28;20848;-69
2021/07/05 10:15:25;;;;;;;2.20;0.87;;;27.60;45.00;;;;;;5035159;28;21071;-69
2021/07/05 10:17:54;;;;;;;2.43;0.80;;;27.60;45.60;;;;;;5039244;28;20860;-70
2021/07/05 10:20:23;;;;;;;2.17;0.87;;;27.60;45.30;;;;;;5052439;28;20444;-69
2021/07/05 10:22:52;;;;;;;1.60;0.80;;;27.60;45.50;;;;;;5050184;28;20533;-69
2021/07/05 10:25:22;;;;;;;1.80;0.90;;;27.60;45.50;;;;;;5035252;28;20580;-69
2021/07/05 10:27:51;;;;;;;2.07;0.70;;;27.50;45.80;;;;;;5034789;28;20521;-69
2021/07/05 10:30:19;;;;;;;1.63;0.80;;;27.70;45.20;;;;;;5033995;28;20882;-69
2021/07/05 10:32:48;;;;;;;1.93;0.80;;;28.00;45.40;;;;;;5034045;28;20828;-69
2021/07/05 10:35:18;;;;;;;2.00;0.90;;;28.50;45.00;;;;;;5033935;28;20440;-70
2021/07/05 10:37:51;;;;;;;1.60;0.60;;;28.90;43.30;;;;;;5037614;28;20475;-69
2021/07/05 10:40:19;;;;;;;2.90;1.40;;;29.30;44.60;;;;;;5034220;28;20465;-69
2021/07/05 10:42:58;;;;;;;2.80;0.80;;;29.50;44.60;;;;;;5033677;28;20484;-70
2021/07/05 10:45:38;;;;;;;1.77;0.70;;;29.50;44.10;;;;;;5034815;28;20571;-68
2021/07/05 10:48:05;;;;;;;1.77;0.80;;;29.60;43.10;;;;;;5048749;28;20534;-69
2021/07/05 10:50:52;;;;;;;1.73;0.80;;;29.70;43.20;;;;;;5052354;28;20578;-69
2021/07/05 10:53:50;;;;;;;2.47;0.70;;;29.70;42.40;;;;;;5043105;28;20449;-69
2021/07/05 10:56:41;;;;;;;1.90;1.00;;;29.60;41.30;;;;;;5007564;28;20540;-69
2021/07/05 10:59:48;;;;;;;1.80;0.90;;;29.60;41.00;;;;;;5048034;28;21032;-69
2021/07/05 11:02:40;;;;;;;2.47;0.80;;;29.60;40.50;;;;;;5046827;28;20432;-69
2021/07/05 11:05:28;;;;;;;1.80;0.80;;;29.70;39.40;;;;;;5033360;28;20566;-69
2021/07/05 11:07:55;;;;;;;1.50;0.63;;;29.50;39.50;;;;;;5038930;28;20487;-69
2021/07/05 11:10:28;;;;;;;5.90;1.00;;;29.30;38.90;;;;;;5034278;28;20820;-69
2021/07/05 11:13:00;;;;;;;1.90;1.00;;;29.40;40.90;;;;;;5035073;28;20475;-69
2021/07/05 11:15:53;;;;;;;3.67;0.80;;;29.40;38.80;;;;;;5051027;28;21001;-69
2021/07/05 11:19:09;;;;;;;1.53;0.70;;;29.30;40.10;;;;;;5042744;28;20903;-70
2021/07/05 11:22:02;;;;;;;1.70;0.80;;;29.50;42.00;;;;;;5043521;28;20464;-70
2021/07/05 11:24:37;;;;;;;1.60;0.70;;;29.70;41.90;;;;;;5051576;28;20986;-69
2021/07/05 11:27:27;;;;;;;1.80;0.90;;;29.80;41.20;;;;;;5044827;28;20512;-69
2021/07/05 11:29:55;;;;;;;2.27;0.87;;;29.80;42.10;;;;;;5050495;28;20468;-71
2021/07/05 11:32:35;;;;;;;1.83;0.87;;;29.70;42.10;;;;;;5044896;28;21138;-69
2021/07/05 11:35:04;;;;;;;2.00;1.00;;;29.60;40.60;;;;;;5051441;28;20923;-70
2021/07/05 11:37:36;;;;;;;1.70;0.90;;;29.50;39.60;;;;;;5050609;28;20536;-70
2021/07/05 11:40:04;;;;;;;1.93;0.77;;;29.30;40.40;;;;;;5033794;28;20450;-70
2021/07/05 11:43:04;;;;;;;2.63;0.80;;;29.20;41.40;;;;;;5033710;28;20533;-69
2021/07/05 11:45:46;;;;;;;2.33;1.13;;;29.10;43.00;;;;;;5041114;28;20801;-70
2021/07/05 11:48:56;;;;;;;2.07;1.03;;;28.90;42.20;;;;;;5033885;28;20522;-69
2021/07/05 11:51:35;;;;;;;1.70;0.83;;;28.80;41.90;;;;;;5032601;28;20442;-69
2021/07/05 11:54:08;;;;;;;2.10;1.40;;;28.70;42.90;;;;;;5033488;28;20463;-69
2021/07/05 11:56:40;;;;;;;2.13;0.90;;;28.60;42.60;;;;;;5032448;28;20443;-69
2021/07/05 11:59:13;;;;;;;4.70;1.10;;;28.50;43.40;;;;;;5042780;28;20945;-71
2021/07/05 12:01:44;;;;;;;2.27;1.03;;;28.40;44.30;;;;;;5050032;28;20434;-70
2021/07/05 12:04:13;;;;;;;1.70;0.90;;;28.30;43.00;;;;;;5049569;28;20458;-69
2021/07/05 12:06:51;;;;;;;3.20;1.03;;;28.20;42.60;;;;;;5050382;28;20526;-71
2021/07/05 12:09:19;;;;;;;3.30;1.07;;;28.00;42.50;;;;;;5049540;28;20439;-69
2021/07/05 12:11:49;;;;;;;1.87;0.77;;;28.00;43.00;;;;;;5049982;28;20501;-68
2021/07/05 12:14:19;;;;;;;2.20;1.00;;;27.90;44.30;;;;;;5049112;28;20441;-69
2021/07/05 12:16:49;;;;;;;1.70;0.90;;;27.90;44.10;;;;;;5032284;28;20515;-69
2021/07/05 12:19:17;;;;;;;1.90;1.00;;;27.90;46.10;;;;;;5043710;28;20454;-71
2021/07/05 12:21:49;;;;;;;4.40;3.23;;;28.00;45.40;;;;;;5051610;28;20448;-69
2021/07/05 12:24:20;;;;;;;1.70;0.90;;;28.10;45.30;;;;;;5051896;28;20430;-69
2021/07/05 12:26:51;;;;;;;4.03;0.90;;;28.10;45.10;;;;;;5052738;28;20566;-68
2021/07/05 12:29:21;;;;;;;1.77;0.70;;;28.00;44.40;;;;;;5050874;28;20497;-69
2021/07/05 12:32:08;;;;;;;2.00;1.03;;;27.90;43.80;;;;;;5046057;28;20484;-69
2021/07/05 12:34:41;;;;;;;1.90;0.97;;;27.60;45.20;;;;;;5032980;28;20446;-69
2021/07/05 12:37:11;;;;;;;2.50;1.20;;;27.30;45.30;;;;;;5041360;28;20433;-70
2021/07/05 12:39:46;;;;;;;1.90;1.30;;;27.20;46.10;;;;;;5052779;28;20443;-69
2021/07/05 12:42:29;;;;;;;2.30;1.20;;;27.10;47.20;;;;;;5033243;28;20446;-68
2021/07/05 12:44:57;;;;;;;2.00;0.90;;;27.10;47.30;;;;;;5046435;28;20433;-68
2021/07/05 12:47:25;;;;;;;2.90;0.97;;;26.90;46.80;;;;;;5052465;28;20498;-70
2021/07/05 12:49:55;;;;;;;4.43;1.30;;;26.80;46.40;;;;;;5039374;28;20507;-69
2021/07/05 12:52:22;;;;;;;2.10;0.83;;;26.70;46.90;;;;;;5032805;28;20437;-68
2021/07/05 12:54:49;;;;;;;1.93;1.00;;;26.60;48.00;;;;;;5033287;28;20442;-69
2021/07/05 12:57:18;;;;;;;1.70;0.70;;;26.50;47.90;;;;;;5032557;28;20500;-69
2021/07/05 13:00:03;;;;;;;2.70;0.90;;;26.40;48.90;;;;;;5033222;28;20656;-69
2021/07/05 13:02:34;;;;;;;1.80;0.63;;;26.30;49.10;;;;;;5032629;28;20437;-69